Mc Comb/Pike County/John E Lewis Field
KMCB : now visible

Airfield :











YOU CAN JOIN US ON...

 
LOGIN :

Register | Disclaimer

   EN    FR    IT 

 









Legend :    VFR   Marginal VFR   IFR   Intensive IFR   Very Intensive IFR
Visi :
Ceiling :
>= 8 km
>= 3000ft
5 to 8 km
1000 to 3000 ft
1500m to 5 km
500 to 1000 ft
800 to 1500m
200 to 500 ft
< 800m
< 200 ft
Symbols :   Thunderstorms  Fog  Heavy snow  Heavy precipitations  Wind > 20 kt







- Airport Elevation : 413 ft


KMCB - Mc Comb/Pike County/John E Lewis Field

CURRENT METAR :
  • 201553Z AUTO 14008KT 10SM CLR 29/20 A3015 RMK AO2 SLP205 T02940200

EXPIRED METARs :
  • 201453Z AUTO 12009KT 10SM SCT031 SCT042 27/21 A3015 RMK AO2 SLP205 T02720206 51020
  • 201353Z AUTO 11009KT 10SM FEW030 FEW036 26/21 A3014 RMK AO2 SLP200 T02560211

TAF KMCB
Valid from the 20 at 12:00 until the 21 at 12:00 UTC


201120Z 2012/2112 VRB03KT 6SM BR FEW020 SCT110
FM201400 11005KT P6SM SCT025 SCT110
FM201600 11006KT P6SM SCT030 BKN100
FM202000 10007KT P6SM FEW045 SCT110
FM210600 00000KT P6SM FEW045 FEW250
No reported NOTAMs for that airfield.



MET'MAP, your aeronautical weather chart ! - Copyright ORBIFLY December 2007 - Disclaimer

ORBIFLY MET'MAP TEAM :

Programming & Development : Alexandra Zaïnal
Concept & Development : Baudouin d'Aumeries
Co-Development & Prog : Marc-Olivier Méhu
Technical & hardware support : Manuel Goepfert

Contact : metmap@orbifly.com




SOURCES & CREDITS :

   NOAA       Earth
Advisory